createdAt,value
2018-04-30T00:00:44.814Z,78.70
2018-04-30T00:01:46.206Z,78.70
2018-04-30T00:02:47.581Z,78.51
2018-04-30T00:03:48.975Z,78.51
2018-04-30T00:04:50.362Z,79.27
2018-04-30T00:05:51.746Z,79.17
2018-04-30T00:06:53.141Z,78.99
2018-04-30T00:07:54.519Z,78.89
2018-04-30T00:08:55.906Z,79.46
2018-04-30T00:09:57.303Z,79.36
2018-04-30T00:10:58.683Z,79.08
2018-04-30T00:12:00.074Z,79.56
2018-04-30T00:13:01.452Z,79.27
2018-04-30T00:14:02.829Z,79.17
2018-04-30T00:15:04.226Z,79.27
2018-04-30T00:16:05.605Z,79.36
2018-04-30T00:17:06.985Z,79.65
2018-04-30T00:18:08.369Z,78.99
2018-04-30T00:19:09.805Z,79.65
2018-04-30T00:20:11.135Z,79.75
2018-04-30T00:21:12.518Z,79.65
2018-04-30T00:22:13.916Z,79.56
2018-04-30T00:23:15.291Z,79.46
2018-04-30T00:24:16.670Z,79.65
2018-04-30T00:25:18.048Z,80.32
2018-04-30T00:26:19.450Z,80.32
2018-04-30T00:27:20.824Z,80.41
2018-04-30T00:28:22.217Z,80.51
2018-04-30T00:29:23.553Z,80.04
2018-04-30T00:30:24.943Z,80.13
2018-04-30T00:31:26.335Z,80.22
2018-04-30T00:32:27.717Z,80.32
2018-04-30T00:33:29.107Z,80.41
2018-04-30T00:34:30.492Z,80.13
2018-04-30T00:35:31.880Z,80.32
2018-04-30T00:36:33.260Z,79.94
2018-04-30T00:37:34.642Z,80.22
2018-04-30T00:38:36.018Z,80.41
2018-04-30T00:39:37.400Z,80.32
2018-04-30T00:40:38.774Z,80.22
2018-04-30T00:41:40.166Z,80.22
2018-04-30T00:42:41.560Z,80.51
2018-04-30T00:43:42.957Z,80.70
2018-04-30T00:44:44.335Z,80.70
2018-04-30T00:45:45.717Z,80.70
2018-04-30T00:46:47.109Z,80.61
2018-04-30T00:47:48.494Z,80.99
2018-04-30T00:48:49.872Z,81.09
2018-04-30T00:49:51.257Z,80.99
2018-04-30T00:50:52.717Z,81.18
2018-04-30T00:51:54.034Z,81.09
2018-04-30T00:52:55.407Z,81.09
2018-04-30T00:53:56.824Z,81.47
2018-04-30T00:54:58.176Z,81.47
2018-04-30T00:55:59.564Z,81.76
2018-04-30T00:57:00.945Z,81.85
2018-04-30T00:58:02.319Z,81.56
2018-04-30T00:59:03.710Z,81.62
2018-04-30T01:00:05.095Z,81.76
2018-04-30T01:01:06.475Z,81.85
2018-04-30T01:02:07.870Z,81.81
2018-04-30T01:03:09.252Z,81.95
2018-04-30T01:04:10.646Z,82.09
2018-04-30T01:05:12.026Z,82.09
2018-04-30T01:06:13.407Z,82.00
2018-04-30T01:07:14.774Z,82.00
2018-04-30T01:08:16.172Z,82.29
2018-04-30T01:09:17.549Z,82.48
2018-04-30T01:10:18.934Z,82.00
2018-04-30T01:11:20.307Z,82.67
2018-04-30T01:12:21.710Z,82.38
2018-04-30T01:13:23.096Z,82.57
2018-04-30T01:14:24.503Z,82.86
2018-04-30T01:15:25.887Z,82.95
2018-04-30T01:16:27.274Z,82.95
2018-04-30T01:17:28.660Z,83.05
2018-04-30T01:18:30.038Z,82.86
2018-04-30T01:19:31.420Z,82.95
2018-04-30T01:20:32.813Z,83.05
2018-04-30T01:21:34.194Z,82.86
2018-04-30T01:22:35.577Z,82.95
2018-04-30T01:23:36.973Z,83.34
2018-04-30T01:24:38.348Z,83.43
2018-04-30T01:25:40.602Z,83.43
2018-04-30T01:26:41.989Z,83.24
2018-04-30T01:27:43.371Z,83.14
2018-04-30T01:28:44.760Z,83.53
2018-04-30T01:29:46.143Z,83.43
2018-04-30T01:30:47.523Z,83.62
2018-04-30T01:31:48.911Z,83.62
2018-04-30T01:32:50.289Z,83.81
2018-04-30T01:33:51.672Z,83.91
2018-04-30T01:34:53.054Z,83.91
2018-04-30T01:35:54.446Z,83.81
2018-04-30T01:36:55.824Z,83.91
2018-04-30T01:37:57.216Z,84.00
2018-04-30T01:38:58.599Z,84.48
2018-04-30T01:39:59.976Z,84.00
2018-04-30T01:41:01.356Z,84.29
2018-04-30T01:42:02.749Z,84.48
2018-04-30T01:43:04.150Z,84.58
2018-04-30T01:44:05.527Z,84.20
2018-04-30T01:45:06.911Z,84.58
2018-04-30T01:46:08.302Z,84.67
2018-04-30T01:47:09.679Z,84.58
2018-04-30T01:48:11.057Z,84.77
2018-04-30T01:49:12.443Z,84.77
2018-04-30T01:50:13.842Z,85.15
2018-04-30T01:51:15.928Z,85.34
2018-04-30T01:52:17.312Z,85.25
2018-04-30T01:53:18.700Z,84.67
2018-04-30T01:54:20.080Z,85.25
2018-04-30T01:55:21.459Z,85.34
2018-04-30T01:56:22.911Z,85.15
2018-04-30T01:57:24.225Z,85.63
2018-04-30T01:58:25.618Z,85.82
2018-04-30T01:59:26.964Z,85.82
2018-04-30T02:00:28.352Z,85.53
2018-04-30T02:01:29.734Z,85.53
2018-04-30T02:02:31.111Z,85.63
2018-04-30T02:03:32.490Z,85.44
2018-04-30T02:04:33.874Z,85.82
2018-04-30T02:05:35.257Z,85.72
2018-04-30T02:06:36.636Z,85.63
2018-04-30T02:07:38.019Z,85.82
2018-04-30T02:08:39.402Z,85.63
2018-04-30T02:09:40.794Z,86.20
2018-04-30T02:10:42.183Z,85.82
2018-04-30T02:11:43.557Z,85.72
2018-04-30T02:12:44.943Z,85.91
2018-04-30T02:13:46.320Z,85.82
2018-04-30T02:14:48.394Z,86.10
2018-04-30T02:15:49.784Z,85.82
2018-04-30T02:16:51.157Z,86.01
2018-04-30T02:17:52.537Z,86.20
2018-04-30T02:18:53.932Z,86.39
2018-04-30T02:19:55.323Z,86.49
2018-04-30T02:20:56.725Z,86.39
2018-04-30T02:21:58.111Z,86.20
2018-04-30T02:22:59.498Z,86.20
2018-04-30T02:24:00.882Z,86.20
2018-04-30T02:25:02.266Z,86.58
2018-04-30T02:26:03.652Z,86.39
2018-04-30T02:27:05.036Z,86.39
2018-04-30T02:28:07.229Z,86.87
2018-04-30T02:29:07.761Z,86.20
2018-04-30T02:30:09.151Z,86.49
2018-04-30T02:31:10.535Z,86.30
2018-04-30T02:32:11.922Z,86.20
2018-04-30T02:33:13.308Z,86.49
2018-04-30T02:34:14.691Z,86.77
2018-04-30T02:35:16.073Z,86.87
2018-04-30T02:36:17.449Z,86.77
2018-04-30T02:37:18.848Z,86.39
2018-04-30T02:38:20.217Z,86.49
2018-04-30T02:39:21.608Z,86.58
2018-04-30T02:40:22.997Z,86.77
2018-04-30T02:41:24.393Z,86.68
2018-04-30T02:42:26.624Z,86.96
2018-04-30T02:43:28.004Z,86.87
2018-04-30T02:44:29.383Z,86.87
2018-04-30T02:45:31.741Z,86.58
2018-04-30T02:46:33.126Z,86.68
2018-04-30T02:47:34.511Z,86.49
2018-04-30T02:48:35.886Z,86.49
2018-04-30T02:49:37.268Z,86.58
2018-04-30T02:50:38.642Z,86.68
2018-04-30T02:51:40.024Z,86.68
2018-04-30T02:52:41.414Z,86.68
2018-04-30T02:53:42.795Z,86.87
2018-04-30T02:54:44.191Z,86.87
2018-04-30T02:55:45.558Z,86.68
2018-04-30T02:56:46.954Z,86.77
2018-04-30T02:57:48.326Z,86.68
2018-04-30T02:58:49.714Z,86.77
2018-04-30T02:59:51.095Z,86.68
2018-04-30T03:00:52.485Z,86.68
2018-04-30T03:01:53.871Z,87.44
2018-04-30T03:02:55.247Z,86.96
2018-04-30T03:03:56.630Z,86.49
2018-04-30T03:04:58.016Z,86.77
2018-04-30T03:05:59.399Z,86.68
2018-04-30T03:07:00.787Z,86.68
2018-04-30T03:08:02.177Z,86.58
2018-04-30T03:09:03.560Z,86.68
2018-04-30T03:10:04.955Z,86.68
2018-04-30T03:11:06.339Z,86.77
2018-04-30T03:12:07.731Z,86.87
2018-04-30T03:13:09.107Z,86.77
2018-04-30T03:14:10.489Z,86.87
2018-04-30T03:15:11.867Z,86.77
2018-04-30T03:16:13.257Z,86.77
2018-04-30T03:17:14.632Z,86.77
2018-04-30T03:18:16.020Z,86.49
2018-04-30T03:19:17.402Z,86.39
2018-04-30T03:20:18.785Z,86.20
2018-04-30T03:21:20.175Z,85.82
2018-04-30T03:22:21.554Z,85.63
2018-04-30T03:23:22.943Z,85.91
2018-04-30T03:24:24.317Z,85.44
2018-04-30T03:25:25.706Z,85.82
2018-04-30T03:26:27.098Z,85.15
2018-04-30T03:27:28.482Z,85.63
2018-04-30T03:28:29.853Z,85.10
2018-04-30T03:29:31.240Z,85.34
2018-04-30T03:30:32.632Z,84.62
2018-04-30T03:31:35.336Z,84.33
2018-04-30T03:32:36.712Z,84.14
2018-04-30T03:33:38.092Z,84.05
2018-04-30T03:34:39.481Z,83.86
2018-04-30T03:35:40.875Z,83.86
2018-04-30T03:36:42.261Z,83.86
2018-04-30T03:37:43.665Z,83.86
2018-04-30T03:38:45.048Z,83.67
2018-04-30T03:39:46.428Z,83.57
2018-04-30T03:40:47.817Z,83.18
2018-04-30T03:41:49.196Z,83.18
2018-04-30T03:42:50.581Z,82.90
2018-04-30T03:43:51.968Z,82.90
2018-04-30T03:44:53.351Z,83.00
2018-04-30T03:45:54.743Z,82.71
2018-04-30T03:46:56.125Z,82.61
2018-04-30T03:47:57.517Z,82.32
2018-04-30T03:48:58.900Z,82.23
2018-04-30T03:50:00.281Z,82.04
2018-04-30T03:51:01.680Z,81.85
2018-04-30T03:52:03.065Z,82.04
2018-04-30T03:53:04.454Z,82.23
2018-04-30T03:54:05.836Z,81.85
2018-04-30T03:55:07.225Z,81.27
2018-04-30T03:56:08.606Z,81.37
2018-04-30T03:57:09.998Z,81.37
2018-04-30T03:58:11.383Z,81.27
2018-04-30T03:59:12.771Z,80.90
2018-04-30T04:00:14.150Z,80.99
2018-04-30T04:01:15.542Z,81.09
2018-04-30T04:02:16.921Z,80.41
2018-04-30T04:03:18.302Z,80.32
2018-04-30T04:04:19.695Z,80.32
2018-04-30T04:05:21.091Z,80.80
2018-04-30T04:06:22.481Z,80.07
2018-04-30T04:07:23.867Z,80.27
2018-04-30T04:08:25.257Z,80.22
2018-04-30T04:09:26.643Z,80.36
2018-04-30T04:10:28.029Z,80.27
2018-04-30T04:11:29.421Z,79.60
2018-04-30T04:12:30.803Z,79.41
2018-04-30T04:13:32.181Z,79.50
2018-04-30T04:14:33.571Z,79.31
2018-04-30T04:15:34.952Z,79.02
2018-04-30T04:16:36.338Z,78.83
2018-04-30T04:17:37.721Z,78.64
2018-04-30T04:18:39.103Z,79.12
2018-04-30T04:19:40.497Z,78.55
2018-04-30T04:20:41.886Z,78.74
2018-04-30T04:21:43.271Z,78.45
2018-04-30T04:22:44.660Z,78.64
2018-04-30T04:23:46.062Z,78.20
2018-04-30T04:24:47.529Z,78.20
2018-04-30T04:25:48.837Z,78.30
2018-04-30T04:26:50.229Z,78.01
2018-04-30T04:27:51.615Z,77.72
2018-04-30T04:28:53.003Z,77.82
2018-04-30T04:29:54.395Z,77.72
2018-04-30T04:30:55.780Z,77.15
2018-04-30T04:31:57.169Z,76.96
2018-04-30T04:32:58.571Z,76.57
2018-04-30T04:33:59.964Z,76.57
2018-04-30T04:35:01.349Z,76.29
2018-04-30T04:36:02.737Z,76.57
2018-04-30T04:37:04.131Z,75.91
2018-04-30T04:38:05.539Z,75.85
2018-04-30T04:39:06.923Z,76.00
2018-04-30T04:40:08.318Z,76.00
2018-04-30T04:41:09.710Z,75.76
2018-04-30T04:42:11.103Z,75.62
2018-04-30T04:43:12.552Z,75.56
2018-04-30T04:44:13.867Z,75.09
2018-04-30T04:45:15.263Z,75.37
2018-04-30T04:46:16.659Z,75.37
2018-04-30T04:47:18.053Z,75.37
2018-04-30T04:48:19.437Z,75.09
2018-04-30T04:49:20.819Z,75.37
2018-04-30T04:50:22.215Z,74.51
2018-04-30T04:51:24.577Z,74.80
2018-04-30T04:52:25.964Z,74.99
2018-04-30T04:53:27.360Z,75.18
2018-04-30T04:54:28.758Z,74.70
2018-04-30T04:55:30.135Z,75.09
2018-04-30T04:56:31.522Z,74.70
2018-04-30T04:57:32.910Z,74.22
2018-04-30T04:58:34.298Z,74.32
2018-04-30T04:59:35.690Z,74.04
2018-04-30T05:00:37.074Z,73.65
2018-04-30T05:01:38.486Z,73.46
2018-04-30T05:02:39.875Z,73.75
2018-04-30T05:03:41.260Z,73.88
2018-04-30T05:04:42.653Z,73.30
2018-04-30T05:05:44.053Z,73.40
2018-04-30T05:06:45.441Z,73.02
2018-04-30T05:07:46.818Z,73.11
2018-04-30T05:08:48.223Z,73.11
2018-04-30T05:09:49.623Z,73.02
2018-04-30T05:10:51.036Z,72.92
2018-04-30T05:11:52.403Z,72.73
2018-04-30T05:12:53.838Z,72.54
2018-04-30T05:13:55.227Z,73.11
2018-04-30T05:14:56.628Z,72.83
2018-04-30T05:15:58.015Z,73.02
2018-04-30T05:16:59.411Z,73.21
2018-04-30T05:18:00.806Z,72.92
2018-04-30T05:19:02.196Z,72.44
2018-04-30T05:20:03.595Z,73.02
2018-04-30T05:21:04.987Z,73.02
2018-04-30T05:22:06.382Z,73.11
2018-04-30T05:23:07.774Z,72.44
2018-04-30T05:24:09.173Z,72.44
2018-04-30T05:25:10.555Z,72.58
2018-04-30T05:26:11.948Z,72.34
2018-04-30T05:27:13.335Z,72.34
2018-04-30T05:28:14.716Z,72.09
2018-04-30T05:29:16.108Z,72.29
2018-04-30T05:30:17.512Z,72.29
2018-04-30T05:31:18.897Z,72.48
2018-04-30T05:32:20.290Z,72.19
2018-04-30T05:33:21.679Z,71.71
2018-04-30T05:34:23.074Z,70.85
2018-04-30T05:35:24.467Z,71.14
2018-04-30T05:36:25.851Z,71.14
2018-04-30T05:37:27.242Z,70.79
2018-04-30T05:38:28.635Z,70.79
2018-04-30T05:39:30.016Z,70.12
2018-04-30T05:40:31.407Z,69.35
2018-04-30T05:41:32.797Z,68.52
2018-04-30T05:42:34.189Z,68.24
2018-04-30T05:43:35.586Z,68.24
2018-04-30T05:44:36.979Z,68.72
2018-04-30T05:45:38.375Z,68.43
2018-04-30T05:46:39.777Z,68.33
2018-04-30T05:47:41.160Z,68.33
2018-04-30T05:48:42.543Z,69.10
2018-04-30T05:49:43.933Z,68.24
2018-04-30T05:50:45.328Z,67.79
2018-04-30T05:51:46.716Z,67.57
2018-04-30T05:52:48.114Z,67.38
2018-04-30T05:53:49.516Z,67.57
2018-04-30T05:54:50.911Z,67.28
2018-04-30T05:55:52.298Z,68.43
2018-04-30T05:56:53.691Z,68.33
2018-04-30T05:57:55.093Z,68.14
2018-04-30T05:58:56.503Z,68.14
2018-04-30T05:59:57.888Z,68.78
2018-04-30T06:00:59.292Z,69.39
2018-04-30T06:02:00.683Z,69.77
2018-04-30T06:03:02.073Z,69.20
2018-04-30T06:04:03.460Z,68.52
2018-04-30T06:05:04.854Z,68.91
2018-04-30T06:06:06.255Z,67.99
2018-04-30T06:07:07.652Z,67.99
2018-04-30T06:08:09.055Z,68.18
2018-04-30T06:09:10.444Z,67.41
2018-04-30T06:10:11.838Z,67.60
2018-04-30T06:11:13.230Z,68.18
2018-04-30T06:12:14.746Z,68.27
2018-04-30T06:13:16.027Z,67.12
2018-04-30T06:14:17.421Z,66.93
2018-04-30T06:15:18.912Z,66.74
2018-04-30T06:16:20.215Z,67.73
2018-04-30T06:17:21.610Z,67.35
2018-04-30T06:18:23.006Z,66.67
2018-04-30T06:19:24.399Z,66.77
2018-04-30T06:20:25.790Z,65.75
2018-04-30T06:21:27.189Z,66.13
2018-04-30T06:22:28.581Z,64.53
2018-04-30T06:23:29.979Z,62.96
2018-04-30T06:24:31.374Z,60.49
2018-04-30T06:25:32.771Z,58.05
2018-04-30T06:26:34.219Z,55.87
2018-04-30T06:27:35.561Z,55.02
2018-04-30T06:28:36.965Z,53.89
2018-04-30T06:29:38.353Z,52.11
2018-04-30T06:30:39.751Z,50.96
2018-04-30T06:31:41.149Z,49.80
2018-04-30T06:32:42.544Z,50.04
2018-04-30T06:33:43.948Z,48.59
2018-04-30T06:34:45.338Z,48.59
2018-04-30T06:35:46.745Z,48.66
2018-04-30T06:36:48.134Z,48.95
2018-04-30T06:37:49.543Z,48.69
2018-04-30T06:38:50.936Z,48.66
2018-04-30T06:39:52.288Z,48.97
2018-04-30T06:40:53.687Z,48.59
2018-04-30T06:41:55.084Z,47.63
2018-04-30T06:42:56.482Z,47.63
2018-04-30T06:43:57.884Z,47.72
2018-04-30T06:44:59.272Z,47.94
2018-04-30T06:46:00.680Z,47.43
2018-04-30T06:47:02.096Z,47.91
2018-04-30T06:48:03.480Z,49.44
2018-04-30T06:49:04.881Z,49.39
2018-04-30T06:50:06.285Z,51.39
2018-04-30T06:51:07.687Z,52.16
2018-04-30T06:52:09.083Z,52.55
2018-04-30T06:53:10.487Z,52.73
2018-04-30T06:54:11.897Z,53.41
2018-04-30T06:55:13.277Z,53.39
2018-04-30T06:56:14.675Z,55.02
2018-04-30T06:57:16.068Z,53.84
2018-04-30T06:58:17.470Z,54.90
2018-04-30T06:59:18.860Z,55.00
2018-04-30T07:00:20.281Z,55.09
2018-04-30T07:01:21.658Z,55.87
2018-04-30T07:02:23.056Z,55.29
2018-04-30T07:03:24.453Z,56.15
2018-04-30T07:04:25.847Z,55.96
2018-04-30T07:05:27.231Z,56.05
2018-04-30T07:06:28.632Z,55.67
2018-04-30T07:07:30.026Z,55.74
2018-04-30T07:08:31.421Z,56.15
2018-04-30T07:09:33.028Z,57.09
2018-04-30T07:10:34.241Z,56.44
2018-04-30T07:11:35.649Z,55.87
2018-04-30T07:12:37.039Z,55.57
2018-04-30T07:13:38.455Z,56.12
2018-04-30T07:14:39.841Z,56.63
2018-04-30T07:15:41.242Z,56.73
2018-04-30T07:16:42.760Z,55.96
2018-04-30T07:17:44.158Z,56.44
2018-04-30T07:18:45.557Z,55.96
2018-04-30T07:19:46.961Z,55.96
2018-04-30T07:20:48.369Z,56.05
2018-04-30T07:21:49.753Z,55.96
2018-04-30T07:22:51.148Z,56.25
2018-04-30T07:23:52.545Z,55.83
2018-04-30T07:24:53.939Z,56.70
2018-04-30T07:25:55.331Z,57.09
2018-04-30T07:26:56.735Z,57.45
2018-04-30T07:27:58.128Z,57.06
2018-04-30T07:28:59.531Z,58.31
2018-04-30T07:30:00.911Z,58.79
2018-04-30T07:31:02.309Z,59.08
2018-04-30T07:32:03.695Z,59.53
2018-04-30T07:33:05.161Z,60.30
2018-04-30T07:34:06.491Z,60.11
2018-04-30T07:35:07.884Z,60.01
2018-04-30T07:36:09.289Z,60.30
2018-04-30T07:37:10.700Z,60.30
2018-04-30T07:38:12.096Z,60.78
2018-04-30T07:39:13.486Z,61.07
2018-04-30T07:40:14.881Z,60.11
2018-04-30T07:41:16.278Z,60.69
2018-04-30T07:42:17.670Z,61.16
2018-04-30T07:43:19.060Z,60.88
2018-04-30T07:44:20.457Z,60.88
2018-04-30T07:45:21.853Z,61.16
2018-04-30T07:46:23.238Z,61.16
2018-04-30T07:47:24.637Z,60.81
2018-04-30T07:48:26.035Z,60.81
2018-04-30T07:49:27.442Z,61.10
2018-04-30T07:50:28.825Z,59.94
2018-04-30T07:51:30.222Z,59.85
2018-04-30T07:52:31.646Z,60.07
2018-04-30T07:53:33.031Z,59.81
2018-04-30T07:54:34.503Z,59.04
2018-04-30T07:55:35.825Z,57.98
2018-04-30T07:56:37.224Z,57.72
2018-04-30T07:57:38.612Z,58.20
2018-04-30T07:58:40.018Z,57.53
2018-04-30T07:59:41.400Z,56.59
2018-04-30T08:00:42.802Z,56.49
2018-04-30T08:01:44.194Z,56.40
2018-04-30T08:02:45.597Z,55.73
2018-04-30T08:03:46.994Z,55.44
2018-04-30T08:04:48.392Z,56.09
2018-04-30T08:05:49.785Z,56.37
2018-04-30T08:06:51.173Z,56.47
2018-04-30T08:07:52.571Z,56.47
2018-04-30T08:08:53.967Z,56.66
2018-04-30T08:09:55.364Z,56.47
2018-04-30T08:10:56.775Z,57.69
2018-04-30T08:11:58.162Z,57.89
2018-04-30T08:12:59.563Z,57.50
2018-04-30T08:14:00.961Z,58.17
2018-04-30T08:15:02.360Z,58.27
2018-04-30T08:16:03.752Z,59.23
2018-04-30T08:17:05.161Z,58.85
2018-04-30T08:18:06.557Z,57.98
2018-04-30T08:19:07.941Z,58.08
2018-04-30T08:20:09.340Z,57.82
2018-04-30T08:21:10.735Z,57.05
2018-04-30T08:22:12.127Z,56.40
2018-04-30T08:23:13.522Z,56.01
2018-04-30T08:24:14.922Z,55.63
2018-04-30T08:25:16.317Z,55.73
2018-04-30T08:26:17.718Z,55.46
2018-04-30T08:27:19.112Z,54.69
2018-04-30T08:28:20.506Z,55.15
2018-04-30T08:29:21.904Z,55.46
2018-04-30T08:30:24.151Z,55.66
2018-04-30T08:31:25.546Z,56.62
2018-04-30T08:32:26.941Z,56.46
2018-04-30T08:33:28.339Z,54.82
2018-04-30T08:34:29.735Z,55.40
2018-04-30T08:35:31.133Z,54.43
2018-04-30T08:36:32.597Z,53.78
2018-04-30T08:37:33.883Z,54.65
2018-04-30T08:38:35.279Z,54.27
2018-04-30T08:39:36.684Z,53.69
2018-04-30T08:40:38.074Z,53.49
2018-04-30T08:41:39.480Z,53.20
2018-04-30T08:42:40.875Z,53.81
2018-04-30T08:43:42.270Z,53.71
2018-04-30T08:44:43.668Z,53.52
2018-04-30T08:45:45.065Z,53.13
2018-04-30T08:46:46.481Z,51.85
2018-04-30T08:47:47.865Z,52.43
2018-04-30T08:48:49.266Z,52.26
2018-04-30T08:49:50.659Z,52.07
2018-04-30T08:50:52.057Z,51.97
2018-04-30T08:51:53.460Z,52.36
2018-04-30T08:52:54.869Z,53.13
2018-04-30T08:53:56.281Z,51.78
2018-04-30T08:54:57.666Z,51.49
2018-04-30T08:55:59.055Z,52.55
2018-04-30T08:57:00.462Z,51.49
2018-04-30T08:58:01.848Z,51.59
2018-04-30T08:59:03.243Z,51.49
2018-04-30T09:00:04.640Z,51.97
2018-04-30T09:01:06.050Z,52.36
2018-04-30T09:02:07.445Z,52.17
2018-04-30T09:03:08.835Z,51.75
2018-04-30T09:04:10.236Z,52.17
2018-04-30T09:05:11.628Z,51.97
2018-04-30T09:06:13.022Z,53.13
2018-04-30T09:07:14.413Z,52.07
2018-04-30T09:08:15.813Z,52.33
2018-04-30T09:09:17.203Z,51.97
2018-04-30T09:10:18.607Z,52.36
2018-04-30T09:11:20.020Z,52.29
2018-04-30T09:12:21.420Z,51.81
2018-04-30T09:13:22.824Z,51.06
2018-04-30T09:14:24.214Z,50.28
2018-04-30T09:15:25.599Z,50.38
2018-04-30T09:16:26.992Z,50.31
2018-04-30T09:17:28.388Z,49.63
2018-04-30T09:18:29.807Z,49.73
2018-04-30T09:19:31.195Z,49.82
2018-04-30T09:20:32.581Z,49.63
2018-04-30T09:21:33.980Z,49.63
2018-04-30T09:22:35.375Z,49.63
2018-04-30T09:23:36.789Z,49.54
2018-04-30T09:24:38.184Z,50.02
2018-04-30T09:25:39.542Z,49.82
2018-04-30T09:26:40.943Z,50.31
2018-04-30T09:27:42.338Z,49.46
2018-04-30T09:28:43.737Z,48.69
2018-04-30T09:29:45.133Z,48.71
2018-04-30T09:30:47.378Z,48.03
2018-04-30T09:31:48.773Z,47.57
2018-04-30T09:32:50.172Z,47.09
2018-04-30T09:33:51.586Z,46.82
2018-04-30T09:34:53.027Z,47.23
2018-04-30T09:35:54.382Z,45.43
2018-04-30T09:36:55.780Z,43.32
2018-04-30T09:37:57.176Z,41.78
2018-04-30T09:38:58.575Z,41.03
2018-04-30T09:39:59.969Z,40.25
2018-04-30T09:41:01.370Z,39.70
2018-04-30T09:42:02.765Z,39.04
2018-04-30T09:43:04.165Z,37.50
2018-04-30T09:44:05.563Z,37.71
2018-04-30T09:45:06.967Z,36.58
2018-04-30T09:46:08.351Z,35.43
2018-04-30T09:47:09.767Z,35.14
2018-04-30T09:48:11.176Z,35.71
2018-04-30T09:49:12.666Z,34.94
2018-04-30T09:50:13.975Z,34.18
2018-04-30T09:51:15.379Z,33.51
2018-04-30T09:52:16.776Z,33.14
2018-04-30T09:53:18.195Z,32.65
2018-04-30T09:54:19.612Z,32.48
2018-04-30T09:55:21.015Z,32.29
2018-04-30T09:56:22.418Z,32.01
2018-04-30T09:57:23.816Z,31.91
2018-04-30T09:58:25.226Z,32.29
2018-04-30T09:59:26.629Z,31.99
2018-04-30T10:00:28.036Z,31.60
2018-04-30T10:01:29.455Z,31.21
2018-04-30T10:02:30.857Z,30.82
2018-04-30T10:03:32.269Z,31.52
2018-04-30T10:04:33.669Z,30.74
2018-04-30T10:05:35.081Z,30.65
2018-04-30T10:06:37.039Z,30.83
2018-04-30T10:07:38.439Z,30.16
2018-04-30T10:08:39.847Z,30.07
2018-04-30T10:09:41.257Z,29.70
2018-04-30T10:10:42.656Z,29.62
2018-04-30T10:11:44.072Z,27.95
2018-04-30T10:12:45.477Z,28.45
2018-04-30T10:13:46.887Z,27.37
2018-04-30T10:14:48.297Z,27.67
2018-04-30T10:15:49.695Z,27.67
2018-04-30T10:16:51.110Z,27.75
2018-04-30T10:17:52.516Z,28.33
2018-04-30T10:18:53.919Z,28.72
2018-04-30T10:19:55.330Z,28.92
2018-04-30T10:20:56.742Z,28.81
2018-04-30T10:21:58.152Z,29.56
2018-04-30T10:22:59.560Z,29.87
2018-04-30T10:24:00.971Z,29.68
2018-04-30T10:25:02.387Z,29.66
2018-04-30T10:26:03.786Z,30.15
2018-04-30T10:27:05.195Z,30.23
2018-04-30T10:28:06.599Z,31.01
2018-04-30T10:29:08.037Z,30.94
2018-04-30T10:30:09.395Z,30.44
2018-04-30T10:31:10.797Z,30.91
2018-04-30T10:32:12.195Z,31.20
2018-04-30T10:33:13.607Z,33.01
2018-04-30T10:34:15.009Z,34.53
2018-04-30T10:35:16.429Z,35.77
2018-04-30T10:36:17.830Z,37.13
2018-04-30T10:37:19.241Z,37.60
2018-04-30T10:38:20.642Z,38.83
2018-04-30T10:39:22.052Z,38.73
2018-04-30T10:40:23.444Z,39.61
2018-04-30T10:41:25.504Z,39.59
2018-04-30T10:42:26.901Z,40.85
2018-04-30T10:43:28.297Z,41.13
2018-04-30T10:44:29.702Z,41.88
2018-04-30T10:45:32.080Z,42.36
2018-04-30T10:46:33.486Z,42.66
2018-04-30T10:47:34.885Z,42.56
2018-04-30T10:48:36.305Z,42.27
2018-04-30T10:49:37.712Z,42.00
2018-04-30T10:50:39.107Z,42.19
2018-04-30T10:51:40.547Z,41.83
2018-04-30T10:52:41.926Z,41.14
2018-04-30T10:53:43.314Z,40.95
2018-04-30T10:54:44.711Z,41.36
2018-04-30T10:55:46.107Z,40.41
2018-04-30T10:56:47.517Z,39.75
2018-04-30T10:57:48.932Z,39.75
2018-04-30T10:58:50.335Z,39.28
2018-04-30T10:59:51.735Z,38.79
2018-04-30T11:00:53.135Z,38.87
2018-04-30T11:01:54.539Z,38.87
2018-04-30T11:02:55.941Z,38.98
2018-04-30T11:03:57.399Z,38.53
2018-04-30T11:04:58.809Z,36.60
2018-04-30T11:06:00.207Z,35.55
2018-04-30T11:07:01.619Z,35.72
2018-04-30T11:08:03.022Z,36.39
2018-04-30T11:09:04.418Z,37.43
2018-04-30T11:10:05.824Z,38.65
2018-04-30T11:11:07.222Z,39.53
2018-04-30T11:12:09.457Z,39.36
2018-04-30T11:13:10.898Z,38.89
2018-04-30T11:14:12.298Z,37.75
2018-04-30T11:15:13.689Z,37.17
2018-04-30T11:16:15.089Z,37.63
2018-04-30T11:17:16.485Z,38.96
2018-04-30T11:18:17.892Z,40.50
2018-04-30T11:19:19.295Z,41.34
2018-04-30T11:20:20.695Z,42.49
2018-04-30T11:21:22.090Z,43.15
2018-04-30T11:22:24.041Z,43.90
2018-04-30T11:23:25.442Z,44.78
2018-04-30T11:24:26.840Z,45.07
2018-04-30T11:25:28.248Z,45.53
2018-04-30T11:26:29.637Z,46.11
2018-04-30T11:27:31.082Z,46.60
2018-04-30T11:28:32.445Z,46.98
2018-04-30T11:29:33.839Z,46.69
2018-04-30T11:30:35.249Z,46.52
2018-04-30T11:31:36.643Z,45.77
2018-04-30T11:32:38.045Z,44.43
2018-04-30T11:33:39.444Z,43.38
2018-04-30T11:34:40.838Z,43.07
2018-04-30T11:35:42.233Z,43.55
2018-04-30T11:36:43.633Z,44.14
2018-04-30T11:37:45.028Z,43.55
2018-04-30T11:38:46.432Z,43.09
2018-04-30T11:39:47.834Z,42.82
2018-04-30T11:40:49.228Z,42.14
2018-04-30T11:41:50.634Z,41.85
2018-04-30T11:42:52.040Z,41.94
2018-04-30T11:43:53.438Z,42.24
2018-04-30T11:44:54.844Z,42.70
2018-04-30T11:45:56.239Z,43.58
2018-04-30T11:46:57.648Z,44.04
2018-04-30T11:47:59.111Z,44.53
2018-04-30T11:49:00.438Z,45.28
2018-04-30T11:50:01.840Z,45.65
2018-04-30T11:51:03.227Z,46.69
2018-04-30T11:52:04.631Z,47.06
2018-04-30T11:53:06.043Z,47.91
2018-04-30T11:54:07.437Z,48.97
2018-04-30T11:55:08.835Z,49.34
2018-04-30T11:56:10.231Z,50.29
2018-04-30T11:57:11.625Z,52.12
2018-04-30T11:58:13.016Z,54.13
2018-04-30T11:59:14.413Z,55.10
2018-04-30T12:00:15.817Z,56.65
2018-04-30T12:01:18.759Z,58.17
2018-04-30T12:02:20.166Z,59.05
2018-04-30T12:03:21.553Z,60.57
2018-04-30T12:04:22.955Z,61.15
2018-04-30T12:05:24.353Z,61.89
2018-04-30T12:06:25.741Z,62.66
2018-04-30T12:07:27.140Z,62.95
2018-04-30T12:08:28.535Z,64.50
2018-04-30T12:09:29.943Z,64.95
2018-04-30T12:10:31.342Z,65.62
2018-04-30T12:11:32.736Z,65.72
2018-04-30T12:12:34.131Z,65.69
2018-04-30T12:13:35.528Z,64.82
2018-04-30T12:14:36.941Z,65.40
2018-04-30T12:15:38.337Z,66.27
2018-04-30T12:16:39.741Z,66.27
2018-04-30T12:17:41.137Z,66.82
2018-04-30T12:18:42.523Z,66.72
2018-04-30T12:19:43.924Z,67.40
2018-04-30T12:20:45.319Z,67.40
2018-04-30T12:21:46.717Z,65.85
2018-04-30T12:22:48.105Z,66.63
2018-04-30T12:23:49.505Z,68.13
2018-04-30T12:24:50.903Z,68.23
2018-04-30T12:25:52.297Z,67.65
2018-04-30T12:26:53.698Z,67.75
2018-04-30T12:27:55.044Z,68.10
2018-04-30T12:28:56.995Z,68.29
2018-04-30T12:29:57.776Z,69.07
2018-04-30T12:30:59.177Z,69.07
2018-04-30T12:32:00.580Z,69.35
2018-04-30T12:33:01.985Z,68.71
2018-04-30T12:34:03.375Z,69.00
2018-04-30T12:35:04.774Z,69.20
2018-04-30T12:36:06.184Z,69.13
2018-04-30T12:37:07.578Z,69.42
2018-04-30T12:38:09.969Z,68.46
2018-04-30T12:39:11.317Z,68.84
2018-04-30T12:40:12.724Z,68.46
2018-04-30T12:41:14.116Z,68.46
2018-04-30T12:42:15.514Z,69.13
2018-04-30T12:43:16.898Z,68.62
2018-04-30T12:44:18.294Z,69.10
2018-04-30T12:45:19.703Z,68.62
2018-04-30T12:46:21.098Z,67.91
2018-04-30T12:47:22.494Z,68.68
2018-04-30T12:48:23.899Z,68.74
2018-04-30T12:49:25.292Z,68.74
2018-04-30T12:50:26.683Z,67.78
2018-04-30T12:51:28.087Z,68.84
2018-04-30T12:52:30.393Z,68.42
2018-04-30T12:53:31.754Z,68.52
2018-04-30T12:54:33.100Z,69.48
2018-04-30T12:55:34.456Z,69.38
2018-04-30T12:56:35.849Z,69.45
2018-04-30T12:57:37.245Z,70.41
2018-04-30T12:58:38.639Z,70.70
2018-04-30T12:59:40.047Z,70.31
2018-04-30T13:00:41.442Z,70.70
2018-04-30T13:01:42.790Z,69.93
2018-04-30T13:02:44.193Z,69.79
2018-04-30T13:03:45.597Z,70.76
2018-04-30T13:04:46.976Z,70.50
2018-04-30T13:05:48.376Z,70.56
2018-04-30T13:06:49.774Z,70.56
2018-04-30T13:07:51.174Z,70.18
2018-04-30T13:08:52.566Z,70.18
2018-04-30T13:09:53.950Z,70.56
2018-04-30T13:10:55.346Z,70.15